Rivas, Nicaragua

9:14 PM CST on September 17, 2014 (GMT -0600)
Augusto Cesar Sandino | Change Station
CLOSE
Current Station
Airport
Location: Managua,
Elevation: 184 ft
Nearby Weather Stations

Elev 184 ft 12.14 °N, 86.17 °W | Updated 1 hour ago

Partly Cloudy
Partly Cloudy
81 °F
Feels Like 85 °F
N
5
Wind Variable Wind from ESE

Today
High -- | Low -- °F
--% Chance of Precip.
Yesterday
High -- | Low -- °F
Precip. -- in
5:32 AM 5:42 PM
Waning Crescent, 31% visible
Pressure 29.86 in
Visibility 6.2 miles
Clouds Few 2100 ft
Heat Index 85 °F
Dew Point 73 °F
Humidity 79%
Rainfall 0.00 in
Snow Depth Not available.
UV 0 out of 12
Pollen Not available.
Air Quality Not available.
Flu Activity Not available.
METAR MNMG 180200Z 11004KT 9999 FEW021CB 27/23 Q1011 A2988 CB N/E/NW FL NOSIG

More Conditions Fewer Conditions

Pressure 29.86 in
Visibility 6.2 miles
Clouds Few 2100 ft
Heat Index 85 °F
Dew Point 73 °F
Humidity 79%
Rainfall 0.00 in
Snow Depth Not available.
UV 0 out of 12
Pollen Not available.
Air Quality Not available.
Flu Activity Not available.
METAR MNMG 180200Z 11004KT 9999 FEW021CB 27/23 Q1011 A2988 CB N/E/NW FL NOSIG

More Conditions Fewer Conditions

10-Day Weather Forecast

Almanac

Astronomy

Sep. 17, 2014 Rise Set
Actual Time 5:32 AM CST 5:42 PM CST
Civil Twilight 5:11 AM CST 6:03 PM CST
Nautical Twilight 4:47 AM CST 6:28 PM CST
Astronomical Twilight 4:22 AM CST 6:52 PM CST
Moon 12:15 AM CST (9/17) 1:09 PM CST (9/17)
Length of Visible Light 12h 52m
Length of Day
12h 09m
Tomorrow will be 0m 37s shorter.
Waning Crescent, 31% of the Moon is Illuminated
Today
Waning Crescent
Sep 24
New
Oct 1
First Quarter
Oct 8
Full
Oct 15
Last Quarter

Today's Extremes

Country Highs Country Lows

Community

WunderPhotos

Upload Photos

1,754,282 photos uploaded!

Nearby

Snow Depth

Not available.

Earthquake Activity

City Distance Mag. Time & Date
No recent earthquake activity has been reported nearby.
Minimum magnitude displayed is 2.5.

Coastal Water Temperatures

Place Temperature
No Stations Reporting

Nearby Weather Stations